• Join FlightAware (Why Join?)
  • Login
  • US Flag 
01:55AM EDT


 

Airport Tracker/Info


-or-


 

Live Flight TrackerFlight Track Log ✈ N825TB ✈ 13-Sep-2013 ✈ KPDK - KFOK

Flight Track Log - Related Links

Times and Time Zones

All times are in EDT time to prevent confusion due to time zone crossing. See the N825TB flight status page for this flight to view local times or setup timezone preferences in your user account.

Time Position Orientation Groundspeed Altitude Reporting Facility
EDT Latitude Longitude Course Direction KTS MPH feet Rate Location/Type
10:05AM 34.7659 -81.7475 58° Northeast 499 574 37,700  Level FlightAware ADS-B
10:05AM 34.7678 -81.7437 59° Northeast 499 574 37,700 1,200 Level FlightAware ADS-B
10:05AM 34.7722 -81.7351 58° Northeast 499 574 37,800 2,400 Climbing FlightAware ADS-B
10:05AM 34.7736 -81.7322 60° Northeast 499 574 37,900 1,980 Climbing FlightAware ADS-B
10:05AM 34.7743 -81.7308 59° Northeast 499 574 37,900  Level FlightAware ADS-B
10:05AM 34.7751 -81.7294 55° Northeast 500 575 37,900  Level FlightAware ADS-B
10:05AM 34.7763 -81.7270 59° Northeast 500 575 37,900  Level FlightAware ADS-B
10:05AM 34.7777 -81.7241 60° Northeast 499 574 37,900 3,000 Level FlightAware ADS-B
10:05AM 34.7787 -81.7222 57° Northeast 499 574 38,000 1,980 Climbing FlightAware ADS-B
10:05AM 34.7820 -81.7155 59° Northeast 499 574 38,000  Level FlightAware ADS-B
10:05AM 34.7828 -81.7141 55° Northeast 500 575 38,000  Level FlightAware ADS-B
10:05AM 34.7833 -81.7131 59° Northeast 500 575 38,000 3,000 Level FlightAware ADS-B
10:05AM 34.7854 -81.7088 59° Northeast 500 575 38,100 3,000 Climbing FlightAware ADS-B
10:05AM 34.7871 -81.7054 59° Northeast 500 575 38,100  Level FlightAware ADS-B
10:05AM 34.7878 -81.7040 59° Northeast 500 575 38,100  Level FlightAware ADS-B
10:05AM 34.7883 -81.7031 56° Northeast 500 575 38,100 3,000 Level FlightAware ADS-B
10:05AM 34.7895 -81.7007 59° Northeast 500 575 38,200 1,200 Climbing FlightAware ADS-B
10:05AM 34.7953 -81.6892 58° Northeast 500 575 38,200 1,200 Level FlightAware ADS-B
10:05AM 34.7965 -81.6868 59° Northeast 500 575 38,300 3,000 Climbing FlightAware ADS-B
10:05AM 34.7977 -81.6844 59° Northeast 500 575 38,300  Level FlightAware ADS-B
10:05AM 34.8001 -81.6796 59° Northeast 500 575 38,300  Level FlightAware ADS-B
10:05AM 34.8008 -81.6781 60° Northeast 500 575 38,300 3,000 Level FlightAware ADS-B
10:05AM 34.8025 -81.6748 58° Northeast 500 575 38,400 3,000 Climbing FlightAware ADS-B
10:05AM 34.8035 -81.6729 57° Northeast 500 575 38,400  Level FlightAware ADS-B
10:05AM 34.8040 -81.6719 59° Northeast 500 575 38,400  Level FlightAware ADS-B
10:05AM 34.8059 -81.6681 59° Northeast 500 575 38,400  Level FlightAware ADS-B
10:05AM 34.8072 -81.6657 57° Northeast 500 575 38,400 1,380 Level FlightAware ADS-B
10:06AM 34.8886 -81.5050 58° Northeast 495 570 40,000 1,380 Climbing FlightAware ADS-B
10:06AM 34.8898 -81.5026 59° Northeast 495 570 40,000 3,000 Level FlightAware ADS-B
10:06AM 34.8923 -81.4979 57° Northeast 495 570 40,100 1,980 Climbing FlightAware ADS-B
10:07AM 34.8923 -81.4979 57° Northeast 494 568 40,100 1,980 Level FlightAware ADS-B
10:07AM 34.8956 -81.4913 59° Northeast 494 568 40,200 3,000 Climbing FlightAware ADS-B
10:07AM 34.8963 -81.4899 59° Northeast 494 568 40,200  Level FlightAware ADS-B
10:07AM 34.8987 -81.4851 59° Northeast 494 568 40,200  Level FlightAware ADS-B
10:07AM 34.8987 -81.4851 59° Northeast 490 564 40,200 1,500 Level FlightAware ADS-B
10:07AM 34.9267 -81.4297 58° Northeast 490 564 40,800 6,000 Climbing FlightAware ADS-B
10:07AM 34.9279 -81.4273 59° Northeast 490 564 40,800  Level FlightAware ADS-B
10:07AM 34.9279 -81.4273 59° Northeast 488 562 40,800 1,980 Level FlightAware ADS-B
10:07AM 34.9357 -81.4119 58° Northeast 488 562 41,000 1,980 Climbing FlightAware ADS-B
10:07AM 34.9357 -81.4119 58° Northeast 487 560 41,000 960 Level FlightAware ADS-B
10:07AM 34.9418 -81.3998 58° Northeast 487 560 41,100 1,980 Climbing FlightAware ADS-B
10:07AM 34.9430 -81.3975 58° Northeast 486 559 41,200 1,980 Climbing FlightAware ADS-B
10:07AM 34.9463 -81.3909 59° Northeast 486 559 41,200  Level FlightAware ADS-B
10:07AM 34.9463 -81.3909 59° Northeast 485 558 41,200 1,500 Level FlightAware ADS-B
10:07AM 34.9543 -81.3752 58° Northeast 485 558 41,400 6,000 Climbing FlightAware ADS-B
10:07AM 34.9568 -81.3700 60° Northeast 485 558 41,400  Level FlightAware ADS-B
10:07AM 34.9592 -81.3654 58° Northeast 485 558 41,400 1,980 Level FlightAware ADS-B
10:07AM 34.9596 -81.3645 62° Northeast 485 558 41,500 3,000 Climbing FlightAware ADS-B
10:07AM 34.9596 -81.3645 62° Northeast 484 557 41,500  Level FlightAware ADS-B
10:07AM 34.9620 -81.3598 58° Northeast 484 557 41,500  Level FlightAware ADS-B
10:07AM 34.9641 -81.3556 59° Northeast 484 557 41,500 1,020 Level FlightAware ADS-B
10:09AM 35.0408 -81.2016 59° Northeast 482 555 42,700 1,020 Climbing FlightAware ADS-B
10:09AM 35.0420 -81.1993 57° Northeast 482 555 42,700  Level FlightAware ADS-B
10:09AM 35.0420 -81.1993 57° Northeast 481 554 42,700 1,500 Level FlightAware ADS-B
10:09AM 35.0505 -81.1820 59° Northeast 481 554 42,900 2,160 Climbing FlightAware ADS-B
10:09AM 35.0631 -81.1565 59° Northeast 481 554 43,100 1,200 Climbing FlightAware ADS-B
10:09AM 35.0642 -81.1542 60° Northeast 481 554 43,100  Level FlightAware ADS-B
10:09AM 35.0677 -81.1473 58° Northeast 481 554 43,100 840 Level FlightAware ADS-B
10:09AM 35.0723 -81.1380 59° Northeast 481 554 43,200 1,200 Climbing FlightAware ADS-B
10:09AM 35.0728 -81.1371 56° Northeast 481 554 43,200  Level FlightAware ADS-B
10:09AM 35.0739 -81.1348 60° Northeast 481 554 43,200  Level FlightAware ADS-B
10:09AM 35.0739 -81.1348 60° Northeast 480 552 43,200  Level FlightAware ADS-B
10:09AM 35.0758 -81.1311 58° Northeast 480 552 43,200  Level FlightAware ADS-B
10:09AM 35.0764 -81.1297 62° Northeast 480 552 43,200 3,000 Level FlightAware ADS-B
10:09AM 35.0780 -81.1265 59° Northeast 480 552 43,300 3,000 Climbing FlightAware ADS-B
10:09AM 35.0797 -81.1232 58° Northeast 480 552 43,300  Level FlightAware ADS-B
10:09AM 35.0804 -81.1218 59° Northeast 480 552 43,300  Level FlightAware ADS-B
10:09AM 35.0815 -81.1195 60° Northeast 480 552 43,300  Level FlightAware ADS-B
10:09AM 35.0831 -81.1163 59° Northeast 480 552 43,300  Level FlightAware ADS-B
10:09AM 35.0845 -81.1135 59° Northeast 480 552 43,300  Level FlightAware ADS-B
10:09AM 35.0852 -81.1121 59° Northeast 480 552 43,300 3,000 Level FlightAware ADS-B
10:09AM 35.0863 -81.1098 60° Northeast 480 552 43,400 3,000 Climbing FlightAware ADS-B
10:09AM 35.0874 -81.1075 60° Northeast 480 552 43,400  Level FlightAware ADS-B
10:09AM 35.0874 -81.1075 60° Northeast 479 551 43,400 840 Level FlightAware ADS-B
10:09AM 35.0955 -81.0913 59° Northeast 479 551 43,500 2,400 Climbing FlightAware ADS-B
10:09AM 35.1003 -81.0816 59° Northeast 479 551 43,600 1,200 Climbing FlightAware ADS-B
10:09AM 35.1014 -81.0793 60° Northeast 479 551 43,600  Level FlightAware ADS-B
10:09AM 35.1026 -81.0770 57° Northeast 479 551 43,600  Level FlightAware ADS-B
10:10AM 35.1026 -81.0770 57° Northeast 478 550 43,600  Level FlightAware ADS-B
10:10AM 35.1026 -81.0770 57° Northeast 479 551 43,600  Level FlightAware ADS-B
10:10AM 35.1060 -81.0701 59° Northeast 479 551 43,600 3,000 Level FlightAware ADS-B
10:10AM 35.1071 -81.0678 60° Northeast 479 551 43,700 1,980 Climbing FlightAware ADS-B
10:10AM 35.1071 -81.0678 60° Northeast 478 550 43,700  Level FlightAware ADS-B
10:10AM 35.1123 -81.0571 59° Northeast 478 550 43,700 360 Level FlightAware ADS-B
10:11AM 35.1757 -80.9283 59° Northeast 483 556 44,200 540 Climbing FlightAware ADS-B
10:11AM 35.1988 -80.8810 59° Northeast 483 556 44,400 960 Climbing FlightAware ADS-B
10:11AM 35.1988 -80.8810 59° Northeast 484 557 44,400  Level FlightAware ADS-B
10:11AM 35.2076 -80.8632 59° Northeast 484 557 44,400 720 Level FlightAware ADS-B
10:11AM 35.2147 -80.8487 59° Northeast 484 557 44,500 720 Climbing FlightAware ADS-B
10:11AM 35.2154 -80.8473 59° Northeast 484 557 44,500  Level FlightAware ADS-B
10:11AM 35.2177 -80.8427 59° Northeast 484 557 44,500  Level FlightAware ADS-B
10:11AM 35.2189 -80.8403 59° Northeast 484 557 44,500  Level FlightAware ADS-B
10:11AM 35.2189 -80.8403 59° Northeast 483 556 44,500  Level FlightAware ADS-B
10:11AM 35.2228 -80.8324 59° Northeast 483 556 44,500 1,980 Level FlightAware ADS-B
10:11AM 35.2251 -80.8276 60° Northeast 483 556 44,600 1,980 Climbing FlightAware ADS-B
10:11AM 35.2258 -80.8262 59° Northeast 483 556 44,600  Level FlightAware ADS-B
10:11AM 35.2269 -80.8239 60° Northeast 484 557 44,600  Level FlightAware ADS-B
10:11AM 35.2287 -80.8201 60° Northeast 484 557 44,600  Level FlightAware ADS-B
10:11AM 35.2287 -80.8201 60° Northeast 485 558 44,600 600 Level FlightAware ADS-B
10:11AM 35.2391 -80.7990 59° Northeast 485 558 44,700 3,000 Climbing FlightAware ADS-B
10:12AM 35.2409 -80.7953 59° Northeast 485 558 44,700  Level FlightAware ADS-B
10:12AM 35.2446 -80.7877 59° Northeast 485 558 44,700  Level FlightAware ADS-B
10:12AM 35.2448 -80.7873 59° Northeast 485 558 44,700  Level FlightAware ADS-B
10:12AM 35.2460 -80.7849 59° Northeast 485 558 44,700  Level FlightAware ADS-B
10:12AM 35.2471 -80.7826 60° Northeast 485 558 44,700  Level FlightAware ADS-B
10:12AM 35.2471 -80.7826 60° Northeast 486 559 44,700 3,000 Level FlightAware ADS-B
10:12AM 35.2512 -80.7741 59° Northeast 486 559 44,800 3,000 Climbing FlightAware ADS-B
10:12AM 35.2517 -80.7731 59° Northeast 486 559 44,800  Level FlightAware ADS-B
10:12AM 35.2524 -80.7718 57° Northeast 486 559 44,800  Level FlightAware ADS-B
10:12AM 35.2528 -80.7708 64° Northeast 486 559 44,800  Level FlightAware ADS-B
10:12AM 35.2540 -80.7685 57° Northeast 486 559 44,800  Level FlightAware ADS-B
10:12AM 35.2559 -80.7647 59° Northeast 486 559 44,800  Level FlightAware ADS-B
10:12AM 35.2570 -80.7623 61° Northeast 486 559 44,800  Level FlightAware ADS-B
10:12AM 35.2575 -80.7614 56° Northeast 486 559 44,800  Level FlightAware ADS-B
10:12AM 35.2586 -80.7590 61° Northeast 486 559 44,800  Level FlightAware ADS-B
10:12AM 35.2596 -80.7572 56° Northeast 486 559 44,800  Level FlightAware ADS-B
10:12AM 35.2614 -80.7534 60° Northeast 486 559 44,800  Level FlightAware ADS-B
10:12AM 35.2632 -80.7496 60° Northeast 486 559 44,800  Level FlightAware ADS-B
10:12AM 35.2637 -80.7487 56° Northeast 486 559 44,800  Level FlightAware ADS-B
10:12AM 35.2649 -80.7463 59° Northeast 486 559 44,800 120 Level FlightAware ADS-B
10:13AM 35.3369 -80.5993 59° Northeast 489 563 45,000 120 Climbing FlightAware ADS-B
10:13AM 35.3432 -80.5865 59° Northeast 489 563 45,000  Level FlightAware ADS-B
10:13AM 35.3467 -80.5793 59° Northeast 489 563 45,000  Level FlightAware ADS-B
10:13AM 35.3537 -80.5651 59° Northeast 489 563 45,000  Level FlightAware ADS-B
10:13AM 35.3551 -80.5623 58° Northeast 489 563 45,000  Level FlightAware ADS-B
10:13AM 35.3708 -80.5300 59° Northeast 489 563 45,000  Level FlightAware ADS-B
10:14AM 35.3708 -80.5300 59° Northeast 486 559 45,000  Level FlightAware ADS-B
10:14AM 35.3847 -80.5017 59° Northeast 486 559 45,000  Level FlightAware ADS-B
10:14AM 35.3872 -80.4965 59° Northeast 486 559 45,000  Level FlightAware ADS-B
10:14AM 35.3872 -80.4965 59° Northeast 485 558 45,000  Level FlightAware ADS-B
10:16AM 35.7176 -80.0709 46° Northeast  Level Estimated
10:17AM 35.9094 -79.8214 46° Northeast  Level Estimated
10:18AM 36.1007 -79.5707 47° Northeast  Level Estimated
10:19AM 36.2914 -79.3187 47° Northeast  Level Estimated
10:20AM 36.4816 -79.0655 47° Northeast  Level Estimated
10:21AM 36.6712 -78.8111 47° Northeast  Level Estimated
10:22AM 36.8604 -78.5554 47° Northeast  Level Estimated
10:23AM 37.0489 -78.2984 47° Northeast  Level Estimated
10:24AM 37.2369 -78.0402 48° Northeast  Level Estimated
10:25AM 37.4244 -77.7806 48° Northeast  Level Estimated
10:26AM 37.6113 -77.5198 48° Northeast  Level Estimated
10:27AM 37.7976 -77.2577 48° Northeast  Level Estimated
10:28AM 37.9833 -76.9942 48° Northeast  Level Estimated
10:29AM 38.1684 -76.7294 48° Northeast  Level Estimated
10:30AM 38.3530 -76.4632 48° Northeast  Level Estimated
10:31AM 38.5369 -76.1957 49° Northeast  Level Estimated
10:32AM 38.7202 -75.9268 49° Northeast  Level Estimated
10:33AM 38.9029 -75.6566 49° Northeast  Level Estimated
10:34AM 39.0849 -75.3849 49° Northeast  Level Estimated
10:35AM 39.2664 -75.1119 49° Northeast  Level Estimated
10:36AM 39.4472 -74.8374 49° Northeast  Level Estimated
10:37AM 39.6273 -74.5615 50° Northeast  Level Estimated
10:38AM 39.8068 -74.2842 50° Northeast  Level Estimated
10:39AM 39.9856 -74.0054 50° Northeast  Level Estimated
10:40AM 40.1638 -73.7252 50° Northeast  Level Estimated
10:41AM 40.3413 -73.4435 50° Northeast  Level Estimated
10:42AM 40.5181 -73.1603 51° Northeast  Level Estimated
10:43AM 40.6941 -72.8756 51° Northeast  Level Estimated
10:44AM 40.8437 -72.6318 51° Northeast  Level Estimated
10:45AM 40.8437 -72.6318 153° Southeast  Level Estimated
10:46AM 40.8437 -72.6318 153° Southeast  Level Estimated
10:47AM 40.8437 -72.6318 153° Southeast  Level Estimated
10:48AM 40.8437 -72.6318 153° Southeast  Level Estimated
10:49AM 40.8437 -72.6318 153° Southeast  Level Estimated
10:50AM 40.8437 -72.6318 153° Southeast  Level Estimated
10:51AM 40.8437 -72.6318 153° Southeast  Level Estimated
10:52AM 40.8437 -72.6318 153° Southeast  Level Estimated
10:53AM 40.8437 -72.6318 153° Southeast  Level Estimated
10:54AM 40.8437 -72.6318 153° Southeast  Level Estimated
10:55AM 40.8437 -72.6318 153° Southeast  Level Estimated
10:56AM 40.8437 -72.6318 153° Southeast  Level Estimated
10:57AM 40.8437 -72.6318 153° Southeast  Level Estimated
10:58AM 40.8437 -72.6318 153° Southeast  Level Estimated
10:59AM 40.8437 -72.6318 153° Southeast  Level Estimated
11:00AM 40.8437 -72.6318 153° Southeast  Level Estimated
11:01AM 40.8437 -72.6318 153° Southeast  Level Estimated
11:02AM 40.8437 -72.6318 153° Southeast  Level Estimated
11:03AM 40.8437 -72.6318 153° Southeast  Level Estimated
11:04AM 40.8437 -72.6318 153° Southeast  Level Estimated